Time;durP1;ratioP1;P1;durP2;ratioP2;P2;SDS_P1;SDS_P2;PMS_P1;PMS_P2;Temp;Humidity;BMP_temperature;BMP_pressure;BME280_temperature;BME280_humidity;BME280_pressure;Samples;Min_cycle;Max_cycle;Signal;HPM_P1;HPM_P2
2023/08/15 00:01:20;;;;;;;5.35;4.93;;;;;;;20.68;100.00;98416.28;4192751;28;20257;-49
2023/08/15 00:03:22;;;;;;;4.78;3.72;;;;;;;20.68;100.00;98411.53;4184565;28;20231;-49
2023/08/15 00:05:24;;;;;;;6.72;3.67;;;;;;;20.71;100.00;98407.31;4196537;28;20207;-49
2023/08/15 00:07:25;;;;;;;5.88;4.65;;;;;;;20.69;100.00;98406.78;4193999;28;20211;-49
2023/08/15 00:09:27;;;;;;;4.38;3.97;;;;;;;20.67;100.00;98409.06;4210467;28;20234;-49
2023/08/15 00:11:29;;;;;;;4.63;3.72;;;;;;;20.67;100.00;98414.63;4191849;28;20206;-50
2023/08/15 00:13:31;;;;;;;3.88;3.58;;;;;;;20.72;100.00;98411.72;4191894;28;20226;-49
2023/08/15 00:15:34;;;;;;;6.57;4.60;;;;;;;20.72;100.00;98415.31;4176931;28;20272;-49
2023/08/15 00:17:36;;;;;;;3.88;3.58;;;;;;;20.70;100.00;98414.81;4192338;28;20218;-49
2023/08/15 00:19:39;;;;;;;4.40;4.00;;;;;;;20.67;100.00;98414.63;4187024;28;20248;-49
2023/08/15 00:21:41;;;;;;;6.32;3.67;;;;;;;20.66;100.00;98418.56;4183624;28;20207;-50
2023/08/15 00:23:42;;;;;;;5.30;4.57;;;;;;;20.63;100.00;98408.06;4182932;28;20230;-50
2023/08/15 00:25:44;;;;;;;4.82;3.80;;;;;;;20.60;100.00;98403.13;4193726;28;20261;-50
2023/08/15 00:27:46;;;;;;;4.95;4.50;;;;;;;20.59;100.00;98401.50;4176741;28;20272;-48
2023/08/15 00:29:47;;;;;;;4.68;4.25;;;;;;;20.58;100.00;98399.88;4191142;28;20210;-49
2023/08/15 00:31:49;;;;;;;51.63;24.25;;;;;;;20.54;100.00;98398.84;4192604;28;20260;-50
2023/08/15 00:33:51;;;;;;;5.28;4.70;;;;;;;20.49;100.00;98393.41;4193495;28;20684;-50
2023/08/15 00:35:53;;;;;;;4.90;3.00;;;;;;;20.47;100.00;98390.13;4196103;28;20712;-49
2023/08/15 00:37:55;;;;;;;4.00;3.70;;;;;;;20.46;100.00;98386.53;4192245;28;20660;-49
2023/08/15 00:39:56;;;;;;;3.53;3.13;;;;;;;20.44;100.00;98382.44;4192823;28;20256;-50
2023/08/15 00:41:58;;;;;;;6.15;3.45;;;;;;;20.56;100.00;98382.66;4189802;28;20207;-49
2023/08/15 00:44:00;;;;;;;4.10;3.80;;;;;;;20.47;100.00;98387.34;4192985;28;20227;-49
2023/08/15 00:46:03;;;;;;;4.07;3.78;;;;;;;20.42;100.00;98393.03;4176303;28;20676;-49
2023/08/15 00:48:06;;;;;;;5.10;3.80;;;;;;;20.42;100.00;98385.53;4192249;28;20209;-49
2023/08/15 00:50:08;;;;;;;5.50;4.30;;;;;;;20.34;100.00;98377.13;4193277;28;20391;-50
2023/08/15 00:52:12;;;;;;;5.10;3.42;;;;;;;20.35;100.00;98384.31;4185597;28;20301;-49
2023/08/15 00:54:14;;;;;;;4.38;3.60;;;;;;;20.32;100.00;98379.41;4206394;28;20230;-50
2023/08/15 00:56:16;;;;;;;6.90;3.80;;;;;;;20.29;100.00;98374.47;4190849;28;20210;-50
2023/08/15 00:58:18;;;;;;;7.10;4.43;;;;;;;20.34;100.00;98382.69;4173468;28;20261;-49
2023/08/15 01:00:19;;;;;;;5.65;3.72;;;;;;;20.41;100.00;98377.50;4192097;28;20203;-49
2023/08/15 01:02:21;;;;;;;4.90;4.50;;;;;;;20.22;100.00;98383.25;4177656;28;20707;-48
2023/08/15 01:04:23;;;;;;;5.03;4.55;;;;;;;20.08;100.00;98387.22;4190727;28;20667;-49
2023/08/15 01:06:24;;;;;;;4.50;4.13;;;;;;;19.89;100.00;98376.25;4174038;28;20208;-49
2023/08/15 01:08:26;;;;;;;4.22;3.83;;;;;;;19.93;100.00;98384.78;4208719;28;20202;-49
2023/08/15 01:10:28;;;;;;;4.90;3.45;;;;;;;19.96;100.00;98389.69;4208617;28;21054;-49
2023/08/15 01:13:02;;;;;;;4.05;3.70;;;;;;;19.94;100.00;98389.19;4176011;28;20211;-50
2023/08/15 01:15:15;;;;;;;7.45;3.40;;;;;;;19.97;100.00;98381.03;4192017;28;20275;-49
2023/08/15 01:17:31;;;;;;;3.50;3.30;;;;;;;20.03;100.00;98384.53;4191321;28;20661;-50
2023/08/15 01:19:41;;;;;;;4.00;3.70;;;;;;;20.02;100.00;98394.00;4191272;28;20578;-49
2023/08/15 01:21:47;;;;;;;4.45;3.20;;;;;;;20.08;100.00;98396.38;4192730;28;20222;-49
2023/08/15 01:23:50;;;;;;;4.38;4.05;;;;;;;20.12;100.00;98418.81;4192369;28;20226;-49
2023/08/15 01:25:55;;;;;;;5.68;3.72;;;;;;;20.15;100.00;98443.19;4190699;28;20581;-49
2023/08/15 01:27:57;;;;;;;3.67;3.38;;;;;;;20.23;100.00;98487.72;4208897;28;20255;-49
2023/08/15 01:30:00;;;;;;;5.47;3.95;;;;;;;20.10;100.00;98508.03;4191580;28;20210;-49
2023/08/15 01:32:39;;;;;;;6.32;5.65;;;;;;;20.01;100.00;98536.81;4191718;28;20672;-49
2023/08/15 01:34:50;;;;;;;5.75;5.35;;;;;;;20.05;100.00;98518.41;4143279;28;20284;-49
2023/08/15 01:37:00;;;;;;;13.32;5.75;;;;;;;20.14;100.00;98511.84;4191124;28;20222;-49
2023/08/15 01:39:03;;;;;;;8.40;6.43;;;;;;;20.13;100.00;98510.19;4189774;28;20587;-49
2023/08/15 01:41:07;;;;;;;5.50;5.00;;;;;;;20.10;100.00;98510.81;4192788;28;20213;-49
2023/08/15 01:43:10;;;;;;;6.43;5.90;;;;;;;20.16;100.00;98519.84;4192566;28;20312;-48
2023/08/15 01:45:12;;;;;;;9.68;5.55;;;;;;;20.26;100.00;98511.28;4191489;28;20596;-48
2023/08/15 01:47:14;;;;;;;5.78;4.90;;;;;;;20.23;100.00;98526.63;4191854;28;20227;-48
2023/08/15 01:49:16;;;;;;;5.18;4.78;;;;;;;20.28;100.00;98529.31;4191876;28;20217;-49
2023/08/15 01:51:18;;;;;;;19.80;7.07;;;;;;;20.30;100.00;98504.78;4190935;28;20215;-48
2023/08/15 01:53:19;;;;;;;9.88;5.05;;;;;;;20.25;100.00;98454.06;4185112;28;20700;-47
2023/08/15 01:55:21;;;;;;;2.90;2.70;;;;;;;20.14;100.00;98488.78;4195573;28;20288;-47
2023/08/15 01:57:23;;;;;;;11.10;3.78;;;;;;;20.10;100.00;98510.00;4193905;28;20211;-47
2023/08/15 01:59:25;;;;;;;5.28;3.47;;;;;;;19.98;100.00;98506.91;4192992;28;20215;-47
2023/08/15 02:01:29;;;;;;;7.57;4.00;;;;;;;20.11;100.00;98490.22;4192797;28;20668;-48
2023/08/15 02:03:31;;;;;;;5.90;3.88;;;;;;;20.09;100.00;98458.31;4183089;28;20258;-47
2023/08/15 02:05:32;;;;;;;4.97;3.30;;;;;;;19.94;100.00;98453.09;4169709;28;20200;-46
2023/08/15 02:07:36;;;;;;;3.33;2.78;;;;;;;19.99;100.00;98436.31;4192307;28;20222;-47
2023/08/15 02:09:38;;;;;;;4.95;3.58;;;;;;;20.01;100.00;98434.03;4196047;28;20687;-46
2023/08/15 02:11:40;;;;;;;3.47;2.50;;;;;;;20.02;100.00;98407.88;4175388;28;20270;-47
2023/08/15 02:13:41;;;;;;;3.90;2.53;;;;;;;19.94;100.00;98380.84;4176194;28;20227;-47
2023/08/15 02:15:44;;;;;;;4.43;3.35;;;;;;;19.82;100.00;98359.19;4183817;28;20234;-47
2023/08/15 02:17:45;;;;;;;3.75;2.83;;;;;;;19.86;100.00;98339.94;4192950;28;20290;-47
2023/08/15 02:19:47;;;;;;;4.65;2.40;;;;;;;19.80;100.00;98349.53;4186801;28;20203;-47
2023/08/15 02:21:49;;;;;;;3.45;2.80;;;;;;;19.84;100.00;98350.56;4182187;28;20203;-47
2023/08/15 02:23:51;;;;;;;3.60;2.58;;;;;;;19.83;100.00;98349.72;4184266;28;20744;-47
2023/08/15 02:25:52;;;;;;;6.82;2.78;;;;;;;19.75;100.00;98344.09;4189389;28;20229;-47
2023/08/15 02:27:54;;;;;;;5.22;2.50;;;;;;;19.76;100.00;98354.88;4193226;28;20249;-48
2023/08/15 02:29:56;;;;;;;4.72;3.20;;;;;;;19.68;100.00;98352.03;4193419;28;20210;-47
2023/08/15 02:31:57;;;;;;;3.38;3.00;;;;;;;19.67;100.00;98350.38;4187743;28;20207;-47
2023/08/15 02:33:59;;;;;;;9.95;2.70;;;;;;;19.63;100.00;98360.47;4190720;28;20284;-47
2023/08/15 02:36:07;;;;;;;4.68;2.88;;;;;;;19.65;100.00;98367.34;4175694;28;20227;-47
2023/08/15 02:38:10;;;;;;;3.38;3.10;;;;;;;19.59;100.00;98370.56;4175892;28;20226;-47
2023/08/15 02:40:12;;;;;;;3.78;3.08;;;;;;;19.64;100.00;98367.69;4175826;28;20208;-47
2023/08/15 02:42:14;;;;;;;7.90;3.60;;;;;;;19.57;100.00;98372.84;4207834;28;20700;-47
2023/08/15 02:44:16;;;;;;;4.28;3.67;;;;;;;19.64;100.00;98387.13;4195626;28;20231;-47
2023/08/15 02:46:17;;;;;;;4.05;3.63;;;;;;;19.60;100.00;98398.03;4195283;28;20225;-47
2023/08/15 02:48:19;;;;;;;3.30;3.00;;;;;;;19.62;100.00;98398.53;4195678;28;20210;-47
2023/08/15 02:50:21;;;;;;;5.90;3.88;;;;;;;19.46;100.00;98393.63;4195361;28;20265;-47
2023/08/15 02:52:22;;;;;;;3.35;3.05;;;;;;;19.40;100.00;98387.38;4187229;28;20664;-47
2023/08/15 02:54:24;;;;;;;5.32;3.40;;;;;;;19.42;100.00;98381.47;4193309;28;20296;-47
2023/08/15 02:56:26;;;;;;;3.72;3.17;;;;;;;19.49;100.00;98388.25;4198856;28;20258;-47
2023/08/15 02:58:28;;;;;;;4.53;3.17;;;;;;;19.46;100.00;98376.97;4184497;28;21027;-48
2023/08/15 03:00:29;;;;;;;4.85;3.50;;;;;;;19.42;100.00;98387.88;4193712;28;20253;-48
2023/08/15 03:02:31;;;;;;;4.07;3.35;;;;;;;19.43;100.00;98400.59;4195529;28;20253;-47
2023/08/15 03:04:33;;;;;;;3.97;3.33;;;;;;;19.49;100.00;98406.88;4187998;28;20270;-47
2023/08/15 03:06:37;;;;;;;3.47;3.17;;;;;;;19.57;100.00;98411.72;4184847;28;20208;-48
2023/08/15 03:08:38;;;;;;;3.53;2.92;;;;;;;19.68;100.00;98427.00;4194309;28;20203;-47
2023/08/15 03:10:41;;;;;;;4.07;3.63;;;;;;;19.74;100.00;98445.19;4193062;28;20214;-46
2023/08/15 03:12:43;;;;;;;5.30;3.13;;;;;;;19.85;100.00;98464.09;4188054;28;20278;-47
2023/08/15 03:14:45;;;;;;;5.72;2.72;;;;;;;19.87;100.00;98477.69;4185709;28;20310;-47
2023/08/15 03:16:46;;;;;;;6.35;3.65;;;;;;;19.92;100.00;98491.47;4186422;28;20218;-47
2023/08/15 03:18:48;;;;;;;3.35;2.97;;;;;;;19.91;100.00;98495.38;4193719;28;20291;-47
2023/08/15 03:20:59;;;;;;;4.05;3.65;;;;;;;19.83;100.00;98490.53;4194009;28;20207;-47
2023/08/15 03:23:01;;;;;;;3.28;2.97;;;;;;;19.84;100.00;98517.22;4210594;28;20209;-48
2023/08/15 03:25:03;;;;;;;7.30;2.97;;;;;;;19.89;100.00;98514.31;4192314;28;20210;-47
2023/08/15 03:27:05;;;;;;;3.00;2.70;;;;;;;19.90;100.00;98521.53;4193795;28;20273;-48
2023/08/15 03:29:06;;;;;;;6.22;2.70;;;;;;;19.67;100.00;98512.28;4194299;28;20203;-47
2023/08/15 03:31:09;;;;;;;3.20;2.95;;;;;;;19.69;100.00;98525.84;4192816;28;20207;-47
2023/08/15 03:33:11;;;;;;;3.45;3.03;;;;;;;19.80;100.00;98527.28;4194355;28;20235;-47
2023/08/15 03:35:13;;;;;;;4.50;3.30;;;;;;;19.67;100.00;98514.22;4194678;28;20280;-48
2023/08/15 03:37:15;;;;;;;3.20;2.50;;;;;;;19.73;100.00;98532.44;4176947;28;20223;-47
2023/08/15 03:39:17;;;;;;;4.40;3.25;;;;;;;19.72;100.00;98530.78;4190548;28;20712;-47
2023/08/15 03:41:19;;;;;;;8.57;3.13;;;;;;;19.78;100.00;98524.00;4194636;28;20268;-47
2023/08/15 03:43:20;;;;;;;4.28;2.80;;;;;;;19.84;100.00;98522.75;4194814;28;20242;-47
2023/08/15 03:45:22;;;;;;;2.40;2.20;;;;;;;19.90;100.00;98532.63;4183324;28;20203;-48
2023/08/15 03:47:24;;;;;;;2.40;2.20;;;;;;;19.88;100.00;98534.88;4194412;28;20329;-47
2023/08/15 03:49:26;;;;;;;3.53;2.50;;;;;;;19.91;100.00;98542.63;4193861;28;20679;-47
2023/08/15 03:51:28;;;;;;;3.97;2.55;;;;;;;19.85;100.00;98557.72;4193302;28;20211;-47
2023/08/15 03:53:47;;;;;;;3.92;3.53;;;;;;;19.81;100.00;98557.53;4193772;28;20228;-48
2023/08/15 03:55:49;;;;;;;3.88;2.88;;;;;;;19.77;100.00;98555.69;4175959;28;20896;-48
2023/08/15 03:57:51;;;;;;;3.97;2.92;;;;;;;19.74;100.00;98561.84;4195181;28;20229;-47
2023/08/15 03:59:52;;;;;;;7.35;2.85;;;;;;;19.84;100.00;98556.09;4194082;28;20260;-48
2023/08/15 04:01:54;;;;;;;3.42;2.78;;;;;;;19.85;100.00;98546.63;4192566;28;20211;-47
2023/08/15 04:03:59;;;;;;;7.40;2.15;;;;;;;19.91;100.00;98537.88;4185798;28;20322;-47
2023/08/15 04:06:01;;;;;;;6.68;2.60;;;;;;;19.87;100.00;98527.69;4192625;28;20207;-48
2023/08/15 04:08:03;;;;;;;3.22;2.72;;;;;;;19.77;100.00;98512.06;4179367;28;20646;-48
2023/08/15 04:10:05;;;;;;;5.88;2.70;;;;;;;19.80;100.00;98510.63;4193403;28;20210;-48
2023/08/15 04:12:07;;;;;;;3.50;3.20;;;;;;;19.67;100.00;98505.88;4193425;28;20210;-48
2023/08/15 04:14:09;;;;;;;3.53;3.20;;;;;;;19.70;100.00;98505.25;4194905;28;20611;-47
2023/08/15 04:16:11;;;;;;;4.40;3.00;;;;;;;19.65;100.00;98520.06;4197049;28;20344;-48
2023/08/15 04:18:13;;;;;;;7.35;2.83;;;;;;;19.45;100.00;98514.91;4192365;28;20216;-47
2023/08/15 04:20:15;;;;;;;3.38;3.08;;;;;;;19.37;100.00;98506.50;4193252;28;20286;-47
2023/08/15 04:22:19;;;;;;;6.57;3.53;;;;;;;19.38;100.00;98502.59;4188286;28;20265;-47
2023/08/15 04:24:21;;;;;;;3.08;2.55;;;;;;;19.40;100.00;98494.78;4190566;28;20234;-48
2023/08/15 04:26:22;;;;;;;4.25;3.33;;;;;;;19.31;100.00;98502.19;4193247;28;20204;-48
2023/08/15 04:28:24;;;;;;;3.97;3.13;;;;;;;19.28;100.00;98502.78;4193155;28;20260;-47
2023/08/15 04:30:26;;;;;;;3.70;3.17;;;;;;;19.28;100.00;98497.22;4192313;28;20215;-47
2023/08/15 04:32:28;;;;;;;4.63;2.78;;;;;;;19.11;100.00;98491.44;4195022;28;20207;-47
2023/08/15 04:34:30;;;;;;;4.20;3.17;;;;;;;19.17;100.00;98490.22;4192562;28;20274;-47
2023/08/15 04:36:31;;;;;;;3.28;2.95;;;;;;;19.08;100.00;98489.25;4192748;28;20223;-47
2023/08/15 04:38:33;;;;;;;4.20;3.80;;;;;;;19.10;100.00;98487.81;4191501;28;20284;-48
2023/08/15 04:40:43;;;;;;;3.55;3.25;;;;;;;18.95;100.00;98487.25;4184449;28;20702;-47
2023/08/15 04:42:45;;;;;;;3.85;3.15;;;;;;;18.91;100.00;98486.25;4192306;28;20675;-47
2023/08/15 04:44:47;;;;;;;4.20;3.90;;;;;;;18.91;100.00;98483.47;4193425;28;20782;-48
2023/08/15 04:46:49;;;;;;;6.05;4.15;;;;;;;18.82;100.00;98477.78;4192419;28;20207;-48
2023/08/15 04:48:51;;;;;;;5.15;4.45;;;;;;;18.90;100.00;98479.03;4182329;28;20275;-47
2023/08/15 04:50:52;;;;;;;4.40;4.07;;;;;;;18.83;100.00;98473.91;4191094;28;20234;-48
2023/08/15 04:52:54;;;;;;;5.60;5.13;;;;;;;18.89;100.00;98466.28;4182774;28;20211;-47
2023/08/15 04:54:56;;;;;;;5.43;4.65;;;;;;;18.89;100.00;98466.28;4187789;28;20281;-47
2023/08/15 04:56:57;;;;;;;7.95;4.15;;;;;;;18.96;100.00;98475.03;4187276;28;20223;-47
2023/08/15 04:58:59;;;;;;;13.50;6.70;;;;;;;18.99;100.00;98474.44;4187305;28;20369;-48
2023/08/15 05:01:01;;;;;;;4.80;4.38;;;;;;;18.96;100.00;98466.72;4182183;28;20310;-46
2023/08/15 05:03:04;;;;;;;5.90;4.25;;;;;;;19.01;100.00;98463.84;4184436;28;20289;-48
2023/08/15 05:05:09;;;;;;;3.65;3.38;;;;;;;18.97;100.00;98463.66;4192135;28;20215;-48
2023/08/15 05:07:11;;;;;;;7.78;4.82;;;;;;;18.97;100.00;98462.84;4190520;28;20245;-47
2023/08/15 05:09:13;;;;;;;4.10;3.72;;;;;;;19.09;100.00;98471.47;4193990;28;20215;-47
2023/08/15 05:11:14;;;;;;;7.63;3.53;;;;;;;19.13;100.00;98472.53;4192482;28;20203;-47
2023/08/15 05:13:16;;;;;;;5.25;3.70;;;;;;;19.14;100.00;98469.44;4192407;28;20290;-48
2023/08/15 05:15:18;;;;;;;3.83;3.53;;;;;;;19.21;100.00;98456.03;4196527;28;20627;-47
2023/08/15 05:17:19;;;;;;;3.67;3.38;;;;;;;19.22;100.00;98459.59;4193567;28;20219;-48
2023/08/15 05:19:22;;;;;;;4.90;3.83;;;;;;;19.18;100.00;98464.09;4197209;28;20199;-48
2023/08/15 05:21:24;;;;;;;3.30;3.10;;;;;;;19.19;100.00;98482.41;4178314;28;20662;-50
2023/08/15 05:23:26;;;;;;;3.13;2.75;;;;;;;19.26;100.00;98482.84;4193223;28;20298;-47
2023/08/15 05:25:27;;;;;;;4.03;2.92;;;;;;;19.30;100.00;98478.31;4180030;28;20708;-47
2023/08/15 05:27:29;;;;;;;7.25;2.50;;;;;;;19.40;100.00;98478.97;4192313;28;20222;-47
2023/08/15 05:29:31;;;;;;;4.65;3.33;;;;;;;19.47;100.00;98489.63;4192547;28;20222;-47
2023/08/15 05:31:32;;;;;;;4.88;3.10;;;;;;;19.55;100.00;98481.41;4192703;28;20216;-48
2023/08/15 05:33:34;;;;;;;4.05;2.83;;;;;;;19.37;100.00;98473.19;4192350;28;20223;-48
2023/08/15 05:35:36;;;;;;;8.43;3.65;;;;;;;19.41;100.00;98479.75;4192678;28;20211;-48
2023/08/15 05:37:38;;;;;;;3.00;2.35;;;;;;;19.48;100.00;98481.00;4192260;28;20241;-48
2023/08/15 05:39:40;;;;;;;4.57;3.38;;;;;;;19.57;100.00;98483.91;4208629;28;20202;-47
2023/08/15 05:41:41;;;;;;;2.55;2.35;;;;;;;19.69;100.00;98490.56;4195327;28;20225;-49
2023/08/15 05:43:43;;;;;;;4.15;2.70;;;;;;;19.78;100.00;98485.91;4186347;28;20230;-48
2023/08/15 05:45:48;;;;;;;3.72;3.40;;;;;;;19.82;100.00;98491.69;4193066;28;20208;-48
2023/08/15 05:47:50;;;;;;;3.65;2.50;;;;;;;20.02;100.00;98486.50;4192639;28;20207;-48
2023/08/15 05:49:52;;;;;;;4.05;2.95;;;;;;;20.12;100.00;98499.38;4184704;28;20298;-47
2023/08/15 05:51:54;;;;;;;3.88;3.35;;;;;;;20.27;100.00;98487.91;4191946;28;20678;-48
2023/08/15 05:53:55;;;;;;;3.63;3.25;;;;;;;20.50;100.00;98492.41;4174744;28;20277;-48
2023/08/15 05:55:57;;;;;;;5.03;3.30;;;;;;;20.73;100.00;98496.81;4191260;28;20697;-48
2023/08/15 05:57:59;;;;;;;5.78;2.55;;;;;;;20.94;100.00;98492.41;4191795;28;20215;-47
2023/08/15 06:00:01;;;;;;;3.88;2.58;;;;;;;20.92;100.00;98495.50;4192772;28;20203;-48
2023/08/15 06:02:03;;;;;;;3.97;2.38;;;;;;;20.95;100.00;98499.63;4192107;28;20607;-48
2023/08/15 06:04:04;;;;;;;4.00;2.50;;;;;;;21.00;100.00;98505.06;4190754;28;20230;-48
2023/08/15 06:06:06;;;;;;;3.55;1.85;;;;;;;21.04;100.00;98506.06;4194106;28;20393;-47
2023/08/15 06:08:08;;;;;;;2.97;2.20;;;;;;;21.24;100.00;98511.09;4192435;28;20759;-49
2023/08/15 06:10:10;;;;;;;2.58;2.13;;;;;;;21.15;100.00;98513.84;4190639;28;20775;-48
2023/08/15 06:12:12;;;;;;;3.08;2.42;;;;;;;21.33;100.00;98523.09;4191709;28;20290;-48
2023/08/15 06:14:14;;;;;;;4.13;2.45;;;;;;;21.30;100.00;98504.25;4183013;28;20231;-48
2023/08/15 06:16:15;;;;;;;2.90;2.15;;;;;;;21.41;100.00;98509.22;4184429;28;20235;-48
2023/08/15 06:18:17;;;;;;;3.75;2.38;;;;;;;21.60;100.00;98511.78;4169016;28;20207;-48
2023/08/15 06:20:20;;;;;;;6.30;2.33;;;;;;;21.74;100.00;98501.38;4178802;28;20338;-48
2023/08/15 06:22:22;;;;;;;2.58;2.20;;;;;;;21.96;100.00;98504.03;4195014;28;20256;-48
2023/08/15 06:24:23;;;;;;;3.85;2.65;;;;;;;22.02;100.00;98505.53;4178072;28;20581;-48
2023/08/15 06:26:25;;;;;;;2.22;2.00;;;;;;;22.33;100.00;98509.06;4196205;28;20206;-48
2023/08/15 06:28:27;;;;;;;3.63;2.00;;;;;;;22.56;100.00;98510.59;4197420;28;20276;-48
2023/08/15 06:30:29;;;;;;;2.70;2.28;;;;;;;22.76;100.00;98513.53;4192903;28;20208;-47
2023/08/15 06:32:32;;;;;;;3.83;2.28;;;;;;;22.78;100.00;98516.00;4195022;28;20203;-48
2023/08/15 06:34:35;;;;;;;3.08;2.25;;;;;;;22.51;100.00;98519.91;4192889;28;20223;-48
2023/08/15 06:36:37;;;;;;;1.88;1.73;;;;;;;22.23;100.00;98520.53;4194678;28;20234;-48
2023/08/15 06:38:38;;;;;;;2.08;1.67;;;;;;;22.52;100.00;98517.97;4189379;28;20204;-48
2023/08/15 06:40:41;;;;;;;2.63;1.90;;;;;;;22.57;100.00;98526.97;4188379;28;20234;-48
2023/08/15 06:42:42;;;;;;;1.83;1.73;;;;;;;22.62;100.00;98526.84;4195227;28;20624;-47
2023/08/15 06:44:44;;;;;;;2.08;1.67;;;;;;;22.58;100.00;98530.59;4194923;28;20231;-48
2023/08/15 06:46:46;;;;;;;2.42;1.90;;;;;;;22.36;100.00;98525.94;4195404;28;20280;-48
2023/08/15 06:48:48;;;;;;;4.70;1.83;;;;;;;22.66;100.00;98539.00;4195539;28;20277;-48
2023/08/15 06:50:50;;;;;;;6.78;2.08;;;;;;;22.88;100.00;98543.56;4193732;28;20214;-48
2023/08/15 06:52:51;;;;;;;1.73;1.38;;;;;;;23.20;100.00;98540.28;4196197;28;20549;-47
2023/08/15 06:54:53;;;;;;;5.50;2.85;;;;;;;23.79;100.00;98538.13;4198805;28;20252;-47
2023/08/15 06:56:55;;;;;;;3.08;1.48;;;;;;;22.81;100.00;98535.69;4185064;28;20237;-48
2023/08/15 06:58:57;;;;;;;3.05;1.70;;;;;;;22.86;100.00;98543.09;4195154;28;20215;-48
2023/08/15 07:01:00;;;;;;;2.88;2.28;;;;;;;22.73;100.00;98549.66;4194442;28;20202;-48
2023/08/15 07:03:05;;;;;;;1.58;1.48;;;;;;;22.50;100.00;98553.75;4190398;28;20290;-48
2023/08/15 07:05:08;;;;;;;3.20;1.70;;;;;;;22.54;100.00;98549.97;4193895;28;20249;-48
2023/08/15 07:07:11;;;;;;;3.72;1.70;;;;;;;22.62;100.00;98551.94;4193592;28;20213;-48
2023/08/15 07:09:14;;;;;;;2.55;1.50;;;;;;;23.67;100.00;98555.94;4195170;28;20546;-48
2023/08/15 07:11:15;;;;;;;1.55;1.45;;;;;;;23.48;100.00;98558.28;4194027;28;20206;-48
2023/08/15 07:13:17;;;;;;;1.80;1.45;;;;;;;23.51;100.00;98558.44;4193034;28;20284;-48
2023/08/15 07:15:19;;;;;;;5.35;2.13;;;;;;;23.83;100.00;98558.69;4192840;28;20214;-48
2023/08/15 07:17:20;;;;;;;2.38;1.67;;;;;;;24.14;100.00;98556.41;4194098;28;20276;-49
2023/08/15 07:19:22;;;;;;;3.13;1.42;;;;;;;23.46;100.00;98555.03;4190426;28;20233;-47
2023/08/15 07:21:24;;;;;;;1.50;1.40;;;;;;;23.58;100.00;98547.56;4194482;28;20269;-47
2023/08/15 07:23:26;;;;;;;2.03;1.30;;;;;;;24.28;100.00;98543.03;4210545;28;20226;-47
2023/08/15 07:25:28;;;;;;;4.45;1.52;;;;;;;25.14;97.45;98552.41;4193960;28;20241;-48
2023/08/15 07:27:30;;;;;;;1.50;1.13;;;;;;;25.41;94.42;98554.69;4195474;28;20199;-49
2023/08/15 07:29:35;;;;;;;2.58;1.80;;;;;;;25.40;94.38;98553.00;4176355;28;20310;-47
2023/08/15 07:31:36;;;;;;;3.47;2.33;;;;;;;25.22;94.49;98548.72;4192365;28;20567;-49
2023/08/15 07:33:38;;;;;;;4.35;1.48;;;;;;;24.85;96.20;98540.50;4210118;28;20584;-48
2023/08/15 07:35:40;;;;;;;5.40;1.55;;;;;;;23.93;100.00;98538.75;4193794;28;20202;-49
2023/08/15 07:37:41;;;;;;;1.85;1.20;;;;;;;24.16;100.00;98540.13;4194458;28;20685;-48
2023/08/15 07:39:43;;;;;;;1.80;1.25;;;;;;;24.75;100.00;98543.72;4200671;28;20207;-48
2023/08/15 07:41:45;;;;;;;1.48;1.10;;;;;;;24.35;99.68;98536.88;4192423;28;20328;-48
2023/08/15 07:43:47;;;;;;;2.13;1.80;;;;;;;24.22;100.00;98540.75;4186892;28;20226;-48
2023/08/15 07:45:49;;;;;;;2.30;1.50;;;;;;;23.89;100.00;98541.75;4187815;28;20253;-48
2023/08/15 07:47:55;;;;;;;2.63;1.45;;;;;;;23.39;100.00;98543.53;4177498;28;20225;-48
2023/08/15 07:50:17;;;;;;;3.63;1.45;;;;;;;23.77;100.00;98554.44;4209477;28;20212;-48
2023/08/15 07:52:19;;;;;;;2.53;1.40;;;;;;;24.51;100.00;98561.13;4194226;28;20643;-48
2023/08/15 07:54:21;;;;;;;1.77;1.67;;;;;;;25.39;99.06;98564.59;4188697;28;20234;-48
2023/08/15 07:56:23;;;;;;;2.53;1.45;;;;;;;24.75;95.31;98569.75;4186944;28;20346;-47
2023/08/15 07:58:24;;;;;;;2.75;1.60;;;;;;;24.83;96.99;98568.84;4210461;28;20236;-48
2023/08/15 08:00:26;;;;;;;1.75;1.40;;;;;;;24.90;97.15;98571.91;4194449;28;20751;-47
2023/08/15 08:02:28;;;;;;;2.03;1.80;;;;;;;25.19;96.89;98571.81;4194051;28;20261;-48
2023/08/15 08:04:30;;;;;;;1.77;1.33;;;;;;;25.45;93.22;98564.00;4181937;28;20231;-48
2023/08/15 08:06:32;;;;;;;2.65;1.38;;;;;;;25.97;94.56;98569.88;4194269;28;20211;-49
2023/08/15 08:08:41;;;;;;;2.08;1.13;;;;;;;26.00;91.46;98569.19;4193160;28;20205;-47
2023/08/15 08:10:43;;;;;;;4.03;1.65;;;;;;;26.07;92.49;98564.63;4194950;28;20203;-47
2023/08/15 08:12:48;;;;;;;1.85;1.30;;;;;;;26.21;90.88;98576.34;4192764;28;20294;-48
2023/08/15 08:14:50;;;;;;;3.42;1.52;;;;;;;26.62;91.48;98569.66;4192634;28;20241;-48
2023/08/15 08:16:58;;;;;;;1.65;1.55;;;;;;;26.27;92.99;98583.34;4193653;28;21017;-48
2023/08/15 08:18:59;;;;;;;2.80;1.55;;;;;;;27.09;89.83;98568.75;4177295;28;20203;-48
2023/08/15 08:21:02;;;;;;;1.92;1.58;;;;;;;27.33;87.18;98574.28;4183076;28;20300;-48
2023/08/15 08:23:04;;;;;;;2.42;1.70;;;;;;;26.49;87.29;98571.66;4192453;28;20230;-48
2023/08/15 08:25:14;;;;;;;1.83;1.73;;;;;;;26.68;89.49;98566.28;4193617;28;20210;-49
2023/08/15 08:27:16;;;;;;;5.28;1.48;;;;;;;26.34;88.15;98571.53;4194963;28;20194;-48
2023/08/15 08:29:20;;;;;;;1.48;1.10;;;;;;;26.17;88.55;98572.59;4193870;28;20221;-47
2023/08/15 08:31:22;;;;;;;3.00;1.63;;;;;;;26.05;86.61;98571.78;4184113;28;20287;-47
2023/08/15 08:33:24;;;;;;;2.75;1.50;;;;;;;25.97;85.91;98576.31;4184694;28;20222;-47
2023/08/15 08:35:26;;;;;;;2.22;1.60;;;;;;;26.13;83.74;98573.66;4169234;28;20653;-48
2023/08/15 08:37:27;;;;;;;2.50;1.80;;;;;;;26.36;82.16;98578.44;4188532;28;20231;-48
2023/08/15 08:39:29;;;;;;;3.67;1.55;;;;;;;26.54;79.73;98568.66;4191999;28;20261;-48
2023/08/15 08:41:36;;;;;;;3.15;1.60;;;;;;;26.89;85.17;98575.38;4192807;28;20221;-48
2023/08/15 08:43:40;;;;;;;1.83;1.60;;;;;;;27.33;81.93;98579.91;4176235;28;20297;-47
2023/08/15 08:45:49;;;;;;;3.60;1.58;;;;;;;27.31;79.39;98579.47;4175979;28;20218;-47
2023/08/15 08:47:51;;;;;;;2.70;1.30;;;;;;;26.64;79.23;98593.41;4192624;28;20198;-48
2023/08/15 08:49:53;;;;;;;6.55;2.22;;;;;;;26.35;77.25;98596.47;4193471;28;20211;-49
2023/08/15 08:51:56;;;;;;;5.20;1.73;;;;;;;26.26;76.44;98590.13;4193227;28;20210;-48
2023/08/15 08:53:58;;;;;;;1.50;1.35;;;;;;;25.73;76.16;98584.63;4193643;28;20318;-48
2023/08/15 08:56:01;;;;;;;3.00;1.73;;;;;;;25.52;77.97;98599.91;4194137;28;20218;-48
2023/08/15 08:58:04;;;;;;;2.85;1.50;;;;;;;25.43;77.59;98605.59;4168588;28;20230;-47
2023/08/15 09:00:09;;;;;;;5.90;2.33;;;;;;;25.63;80.18;98610.34;4208782;28;20306;-47
2023/08/15 09:02:14;;;;;;;3.20;1.60;;;;;;;25.73;83.04;98614.69;4194100;28;20202;-49
2023/08/15 09:04:19;;;;;;;2.63;1.48;;;;;;;25.56;81.03;98615.69;4183999;28;20260;-47
2023/08/15 09:06:21;;;;;;;3.97;1.70;;;;;;;25.19;77.14;98621.44;4192703;28;20208;-47
2023/08/15 09:08:23;;;;;;;2.08;1.88;;;;;;;25.15;79.44;98620.47;4193126;28;20750;-46
2023/08/15 09:10:24;;;;;;;2.00;1.50;;;;;;;25.16;81.10;98627.72;4192976;28;20208;-47
2023/08/15 09:12:32;;;;;;;3.20;1.50;;;;;;;25.09;79.83;98624.66;4197544;28;20731;-47
2023/08/15 09:14:40;;;;;;;5.43;2.25;;;;;;;24.79;77.01;98623.88;4193372;28;20229;-46
2023/08/15 09:16:49;;;;;;;2.17;1.75;;;;;;;24.56;75.78;98616.97;4191221;28;20206;-47
2023/08/15 09:18:51;;;;;;;4.88;2.10;;;;;;;24.54;76.79;98622.03;4177163;28;20202;-46
2023/08/15 09:20:53;;;;;;;3.47;2.08;;;;;;;24.41;78.78;98627.88;4190573;28;20213;-46
2023/08/15 09:22:56;;;;;;;2.97;1.70;;;;;;;24.35;78.58;98630.06;4186990;28;20212;-46
2023/08/15 09:24:58;;;;;;;2.97;2.10;;;;;;;24.26;79.90;98625.66;4192483;28;20218;-47
2023/08/15 09:27:05;;;;;;;4.35;1.85;;;;;;;24.21;81.66;98632.22;4192987;28;20573;-47
2023/08/15 09:29:07;;;;;;;2.05;1.50;;;;;;;24.19;81.86;98628.97;4181823;28;20202;-47
2023/08/15 09:31:10;;;;;;;4.93;1.63;;;;;;;24.02;83.23;98626.25;4190286;28;20211;-47
2023/08/15 09:33:14;;;;;;;2.53;1.42;;;;;;;23.93;81.05;98642.22;4192442;28;20250;-46